Time;durP1;ratioP1;P1;durP2;ratioP2;P2;SDS_P1;SDS_P2;PMS_P1;PMS_P2;Temp;Humidity;BMP_temperature;BMP_pressure;BME280_temperature;BME280_humidity;BME280_pressure;Samples;Min_cycle;Max_cycle;Signal;HPM_P1;HPM_P2
2023/12/17 00:01:26;;;;;;;4.47;3.47;;;22.50;44.70;;;;;;5118780;27;20071;-40
2023/12/17 00:03:52;;;;;;;4.20;3.00;;;22.50;44.80;;;;;;5117423;27;20489;-40
2023/12/17 00:06:18;;;;;;;3.10;2.90;;;22.40;44.70;;;;;;5122153;28;20069;-40
2023/12/17 00:08:45;;;;;;;4.85;3.30;;;22.40;44.70;;;;;;5112832;28;20040;-40
2023/12/17 00:11:11;;;;;;;3.55;3.25;;;22.40;44.70;;;;;;5117470;27;20046;-40
2023/12/17 00:13:38;;;;;;;5.10;3.30;;;22.40;44.80;;;;;;5121007;27;20040;-39
2023/12/17 00:16:05;;;;;;;3.60;3.17;;;22.30;44.80;;;;;;5122191;27;20015;-39
2023/12/17 00:18:31;;;;;;;3.35;3.05;;;22.30;44.90;;;;;;5117822;28;20031;-40
2023/12/17 00:20:57;;;;;;;3.40;3.10;;;22.30;44.80;;;;;;5115095;28;20511;-39
2023/12/17 00:23:23;;;;;;;3.58;3.28;;;22.30;44.90;;;;;;5120384;27;20043;-39
2023/12/17 00:25:50;;;;;;;2.90;2.67;;;22.20;45.00;;;;;;5121255;28;20053;-39
2023/12/17 00:28:16;;;;;;;2.67;2.47;;;22.20;45.10;;;;;;5117277;28;20480;-39
2023/12/17 00:30:42;;;;;;;3.42;2.80;;;22.10;45.10;;;;;;5115887;28;20055;-39
2023/12/17 00:33:08;;;;;;;3.35;3.05;;;22.10;45.20;;;;;;5120744;28;20086;-39
2023/12/17 00:35:34;;;;;;;2.67;2.47;;;22.00;45.40;;;;;;5106152;28;20024;-38
2023/12/17 00:38:00;;;;;;;2.92;2.65;;;22.10;45.30;;;;;;5121554;28;20028;-39
2023/12/17 00:40:26;;;;;;;2.28;2.08;;;22.20;45.10;;;;;;5116464;28;20119;-39
2023/12/17 00:42:52;;;;;;;2.20;2.05;;;22.30;45.00;;;;;;5112519;27;20115;-39
2023/12/17 00:45:18;;;;;;;2.47;2.30;;;22.40;45.00;;;;;;5112580;28;20084;-39
2023/12/17 00:47:44;;;;;;;1.90;1.80;;;22.40;45.00;;;;;;5112955;28;20415;-39
2023/12/17 00:50:11;;;;;;;2.80;2.60;;;22.50;45.00;;;;;;5109914;28;20038;-39
2023/12/17 00:52:37;;;;;;;2.33;2.10;;;22.40;45.10;;;;;;5111211;28;20382;-39
2023/12/17 00:55:03;;;;;;;2.42;2.22;;;22.40;45.20;;;;;;5119168;28;20020;-39
2023/12/17 00:57:29;;;;;;;2.47;2.15;;;22.40;45.20;;;;;;5114517;28;20020;-38
2023/12/17 00:59:56;;;;;;;2.30;2.10;;;22.30;45.20;;;;;;5116123;28;20032;-38
2023/12/17 01:02:22;;;;;;;2.20;2.00;;;22.30;45.20;;;;;;5107968;28;20038;-39
2023/12/17 01:04:48;;;;;;;2.28;1.83;;;22.30;45.30;;;;;;5110766;27;20028;-39
2023/12/17 01:07:14;;;;;;;2.45;2.17;;;22.20;45.20;;;;;;5111435;28;20036;-39
2023/12/17 01:09:41;;;;;;;1.90;1.80;;;22.20;45.20;;;;;;5105603;28;20035;-39
2023/12/17 01:12:07;;;;;;;2.27;2.07;;;22.20;45.30;;;;;;5107492;28;20032;-39
2023/12/17 01:14:34;;;;;;;2.08;1.85;;;22.20;45.40;;;;;;5116726;28;20101;-39
2023/12/17 01:17:01;;;;;;;2.30;2.10;;;22.10;45.30;;;;;;5116019;28;20035;-40
2023/12/17 01:19:28;;;;;;;2.30;2.10;;;22.10;45.40;;;;;;5112538;27;20035;-39
2023/12/17 01:21:54;;;;;;;2.03;1.90;;;22.10;45.40;;;;;;5116650;27;20784;-40
2023/12/17 01:24:20;;;;;;;2.28;2.00;;;22.00;45.50;;;;;;5120582;27;20575;-39
2023/12/17 01:26:46;;;;;;;2.13;1.92;;;22.00;45.50;;;;;;5110916;28;20046;-39
2023/12/17 01:29:12;;;;;;;2.35;2.13;;;21.90;45.50;;;;;;5123085;27;20070;-39
2023/12/17 01:31:39;;;;;;;2.00;1.80;;;21.90;45.60;;;;;;5118318;27;20096;-40
2023/12/17 01:34:06;;;;;;;2.05;1.85;;;21.80;45.60;;;;;;5106592;28;20031;-39
2023/12/17 01:36:33;;;;;;;2.03;1.58;;;21.90;45.70;;;;;;5116537;28;20133;-38
2023/12/17 01:38:59;;;;;;;1.83;1.42;;;22.00;45.50;;;;;;5113271;28;20038;-39
2023/12/17 01:41:25;;;;;;;1.42;1.33;;;22.10;45.40;;;;;;5116994;28;20027;-38
2023/12/17 01:43:51;;;;;;;2.00;1.73;;;22.20;45.40;;;;;;5118574;27;20054;-39
2023/12/17 01:46:18;;;;;;;1.70;1.60;;;22.30;45.40;;;;;;5113175;28;20027;-39
2023/12/17 01:48:44;;;;;;;1.95;1.30;;;22.30;45.30;;;;;;5110633;28;20044;-39
2023/12/17 01:51:10;;;;;;;1.58;1.45;;;22.40;45.30;;;;;;5113687;27;20031;-39
2023/12/17 01:53:36;;;;;;;1.60;1.50;;;22.40;45.40;;;;;;5112155;27;20030;-39
2023/12/17 01:56:03;;;;;;;3.03;1.60;;;22.30;45.40;;;;;;5107685;28;20028;-35
2023/12/17 01:58:29;;;;;;;2.03;1.50;;;22.30;45.60;;;;;;5126890;27;20065;-36
2023/12/17 02:00:55;;;;;;;2.53;2.00;;;22.30;45.70;;;;;;5090093;28;20032;-36
2023/12/17 02:03:21;;;;;;;3.78;2.42;;;22.30;45.70;;;;;;5108661;28;20667;-36
2023/12/17 02:05:47;;;;;;;4.88;2.60;;;22.20;45.50;;;;;;5105807;28;20032;-36
2023/12/17 02:08:14;;;;;;;4.10;2.92;;;22.20;45.50;;;;;;5116445;28;20102;-36
2023/12/17 02:10:40;;;;;;;3.00;2.80;;;22.20;45.50;;;;;;5110167;28;20024;-35
2023/12/17 02:13:09;;;;;;;3.22;2.92;;;22.20;45.40;;;;;;5111701;27;20040;-37
2023/12/17 02:15:37;;;;;;;4.07;3.30;;;22.20;45.30;;;;;;5108513;28;20043;-37
2023/12/17 02:18:03;;;;;;;3.28;3.03;;;22.20;45.30;;;;;;5105869;28;20036;-38
2023/12/17 02:20:30;;;;;;;3.20;2.90;;;22.10;45.30;;;;;;5108284;28;20050;-38
2023/12/17 02:22:57;;;;;;;3.38;3.10;;;22.10;45.30;;;;;;5111038;28;20039;-37
2023/12/17 02:25:24;;;;;;;3.03;2.80;;;22.10;45.40;;;;;;5108472;28;20034;-38
2023/12/17 02:27:50;;;;;;;2.53;2.33;;;22.00;45.50;;;;;;5112411;28;20034;-38
2023/12/17 02:30:16;;;;;;;2.90;2.70;;;22.00;45.60;;;;;;5098625;28;20272;-38
2023/12/17 02:32:42;;;;;;;4.40;2.80;;;22.00;45.60;;;;;;5110877;28;20036;-38
2023/12/17 02:35:08;;;;;;;2.88;2.67;;;21.90;45.60;;;;;;5119070;27;20028;-38
2023/12/17 02:37:35;;;;;;;3.03;2.58;;;21.90;45.70;;;;;;5115789;28;20050;-38
2023/12/17 02:40:01;;;;;;;3.15;2.28;;;21.90;45.80;;;;;;5114621;28;20047;-38
2023/12/17 02:42:27;;;;;;;2.55;2.25;;;22.10;45.60;;;;;;5111526;28;20027;-38
2023/12/17 02:44:53;;;;;;;2.30;2.10;;;22.10;45.50;;;;;;5119870;28;20032;-38
2023/12/17 02:47:19;;;;;;;2.80;2.00;;;22.20;45.50;;;;;;5113985;28;20039;-38
2023/12/17 02:49:45;;;;;;;2.17;1.98;;;22.30;45.50;;;;;;5114449;28;20073;-37
2023/12/17 02:52:12;;;;;;;1.90;1.80;;;22.40;45.40;;;;;;5111312;28;20040;-38
2023/12/17 02:54:38;;;;;;;2.20;2.00;;;22.30;45.40;;;;;;5107846;28;20123;-38
2023/12/17 02:57:06;;;;;;;2.13;1.90;;;22.30;45.50;;;;;;5112087;28;20500;-38
2023/12/17 02:59:32;;;;;;;2.20;2.00;;;22.20;45.60;;;;;;5109396;28;20066;-38
2023/12/17 03:01:58;;;;;;;2.30;2.10;;;22.20;45.70;;;;;;5103861;28;20044;-45
2023/12/17 03:04:24;;;;;;;2.63;2.03;;;22.20;45.70;;;;;;5107952;28;20023;-38
2023/12/17 03:06:50;;;;;;;2.20;2.00;;;22.10;45.70;;;;;;5107373;28;20024;-38
2023/12/17 03:09:16;;;;;;;2.17;1.98;;;22.10;45.70;;;;;;5109536;28;20032;-38
2023/12/17 03:11:42;;;;;;;1.95;1.75;;;22.10;45.70;;;;;;5107909;28;20032;-38
2023/12/17 03:14:09;;;;;;;2.00;1.80;;;22.00;45.70;;;;;;5112567;28;20020;-37
2023/12/17 03:16:35;;;;;;;2.22;2.03;;;22.00;45.80;;;;;;5105275;28;20036;-38
2023/12/17 03:19:01;;;;;;;1.70;1.60;;;22.00;45.80;;;;;;5108788;28;20027;-37
2023/12/17 03:21:27;;;;;;;1.70;1.60;;;21.90;45.80;;;;;;5106157;28;20053;-37
2023/12/17 03:23:54;;;;;;;2.22;2.03;;;21.90;45.90;;;;;;5107346;28;20032;-38
2023/12/17 03:26:20;;;;;;;2.40;1.90;;;21.90;46.00;;;;;;5109723;28;20016;-38
2023/12/17 03:28:47;;;;;;;1.77;1.67;;;21.80;46.00;;;;;;5106361;28;20028;-37
2023/12/17 03:31:16;;;;;;;2.03;1.80;;;21.80;46.10;;;;;;5113163;28;20039;-38
2023/12/17 03:33:43;;;;;;;2.90;2.00;;;21.70;46.10;;;;;;5111496;28;20052;-37
2023/12/17 03:36:13;;;;;;;1.83;1.58;;;21.70;46.10;;;;;;5109867;28;20050;-37
2023/12/17 03:38:40;;;;;;;1.67;1.58;;;21.70;46.20;;;;;;5110771;28;20032;-38
2023/12/17 03:41:06;;;;;;;1.80;1.50;;;21.80;46.00;;;;;;5109455;28;20027;-38
2023/12/17 03:43:32;;;;;;;1.90;1.70;;;21.90;45.90;;;;;;5109747;28;20024;-38
2023/12/17 03:45:59;;;;;;;1.60;1.35;;;22.00;45.90;;;;;;5111505;28;20804;-38
2023/12/17 03:48:25;;;;;;;1.73;1.30;;;22.10;45.90;;;;;;5109146;28;20048;-38
2023/12/17 03:50:51;;;;;;;1.15;1.05;;;22.20;45.80;;;;;;5107282;28;22215;-38
2023/12/17 03:53:17;;;;;;;1.55;1.45;;;22.20;45.80;;;;;;5107650;28;20161;-38
2023/12/17 03:55:43;;;;;;;1.52;1.40;;;22.30;45.70;;;;;;5108968;28;20053;-38
2023/12/17 03:58:09;;;;;;;1.50;1.17;;;22.30;45.80;;;;;;5116037;28;20412;-38
2023/12/17 04:00:36;;;;;;;1.50;1.40;;;22.20;45.80;;;;;;5112136;28;20038;-39
2023/12/17 04:03:02;;;;;;;1.83;1.45;;;22.20;45.80;;;;;;5116090;28;20028;-38
2023/12/17 04:05:28;;;;;;;1.75;1.60;;;22.10;45.80;;;;;;5106242;28;20755;-38
2023/12/17 04:07:54;;;;;;;2.17;1.25;;;22.20;45.90;;;;;;5108625;28;20053;-38
2023/12/17 04:10:21;;;;;;;1.77;1.50;;;22.10;45.90;;;;;;5107125;28;20036;-38
2023/12/17 04:12:47;;;;;;;1.40;1.30;;;22.10;46.00;;;;;;5109306;28;20047;-38
2023/12/17 04:15:15;;;;;;;1.48;1.33;;;22.00;45.90;;;;;;5110903;28;20666;-38
2023/12/17 04:17:41;;;;;;;1.67;1.40;;;22.00;46.00;;;;;;5115236;28;20032;-38
2023/12/17 04:20:08;;;;;;;3.20;1.40;;;21.90;46.10;;;;;;5108036;28;20047;-38
2023/12/17 04:22:34;;;;;;;1.30;1.20;;;21.90;46.20;;;;;;5110118;28;20028;-38
2023/12/17 04:25:00;;;;;;;1.35;1.20;;;21.90;46.30;;;;;;5110501;28;20051;-39
2023/12/17 04:27:26;;;;;;;1.92;1.60;;;21.80;46.30;;;;;;5110508;28;20035;-39
2023/12/17 04:29:52;;;;;;;2.47;1.50;;;21.80;46.70;;;;;;5112849;28;20027;-38
2023/12/17 04:32:18;;;;;;;1.55;1.27;;;21.70;46.40;;;;;;5095050;28;20114;-38
2023/12/17 04:34:45;;;;;;;2.05;1.30;;;21.70;46.40;;;;;;5113413;27;20042;-38
2023/12/17 04:37:11;;;;;;;1.55;1.40;;;21.70;46.50;;;;;;5110086;28;20043;-38
2023/12/17 04:39:37;;;;;;;1.45;1.10;;;21.60;46.50;;;;;;5112408;28;20031;-38
2023/12/17 04:42:03;;;;;;;1.80;1.40;;;21.70;46.40;;;;;;5119528;28;20083;-38
2023/12/17 04:44:29;;;;;;;1.40;1.20;;;21.80;46.20;;;;;;5118388;27;20093;-38
2023/12/17 04:46:57;;;;;;;1.23;1.08;;;21.90;46.10;;;;;;5111037;28;20311;-38
2023/12/17 04:49:23;;;;;;;1.30;1.13;;;22.00;46.10;;;;;;5112211;28;20039;-38
2023/12/17 04:51:49;;;;;;;1.20;1.10;;;22.10;46.00;;;;;;5108173;28;20032;-38
2023/12/17 04:54:15;;;;;;;1.30;1.17;;;22.10;46.00;;;;;;5111940;28;20028;-38
2023/12/17 04:56:42;;;;;;;1.38;1.27;;;22.20;45.90;;;;;;5097103;27;20019;-39
2023/12/17 04:59:08;;;;;;;1.42;1.20;;;22.30;45.90;;;;;;5117389;28;20033;-40
2023/12/17 05:01:34;;;;;;;1.52;1.20;;;22.40;45.80;;;;;;5109159;28;20035;-39
2023/12/17 05:04:00;;;;;;;1.73;1.30;;;22.40;45.80;;;;;;5111539;28;20031;-39
2023/12/17 05:06:26;;;;;;;1.13;1.02;;;22.40;45.90;;;;;;5110984;28;20058;-39
2023/12/17 05:08:52;;;;;;;1.70;1.30;;;22.30;46.00;;;;;;5114571;28;20036;-39
2023/12/17 05:11:18;;;;;;;1.30;1.10;;;22.30;45.90;;;;;;5115660;28;20050;-39
2023/12/17 05:13:44;;;;;;;1.08;0.98;;;22.20;45.90;;;;;;5110445;28;20036;-39
2023/12/17 05:16:11;;;;;;;1.20;1.10;;;22.20;45.90;;;;;;5112962;28;20133;-39
2023/12/17 05:18:37;;;;;;;1.20;1.05;;;22.20;46.00;;;;;;5115928;28;20476;-39
2023/12/17 05:21:04;;;;;;;1.65;1.30;;;22.10;46.10;;;;;;5115652;28;20034;-39
2023/12/17 05:23:30;;;;;;;1.40;1.30;;;22.10;46.00;;;;;;5113370;28;20051;-39
2023/12/17 05:25:56;;;;;;;1.60;1.10;;;22.00;46.00;;;;;;5110068;28;20662;-39
2023/12/17 05:28:22;;;;;;;1.58;1.40;;;22.00;46.20;;;;;;5110715;28;20024;-39
2023/12/17 05:30:48;;;;;;;1.75;1.20;;;22.00;46.20;;;;;;5111392;28;20023;-39
2023/12/17 05:33:14;;;;;;;1.30;1.13;;;21.90;46.20;;;;;;5108314;28;20032;-39
2023/12/17 05:35:42;;;;;;;1.40;1.10;;;21.90;46.20;;;;;;5113064;28;20038;-39
2023/12/17 05:38:08;;;;;;;1.40;1.20;;;21.80;46.30;;;;;;5112463;27;20030;-38
2023/12/17 05:40:34;;;;;;;1.30;1.20;;;21.80;46.30;;;;;;5110112;28;20030;-38
2023/12/17 05:43:00;;;;;;;2.65;1.50;;;21.80;46.30;;;;;;5113179;28;20030;-36
2023/12/17 05:45:26;;;;;;;2.22;1.75;;;21.80;46.40;;;;;;5119050;27;20028;-38
2023/12/17 05:47:52;;;;;;;2.28;1.80;;;21.70;46.20;;;;;;5106211;28;20048;-39
2023/12/17 05:50:18;;;;;;;2.67;1.90;;;21.70;46.10;;;;;;5111727;28;20032;-39
2023/12/17 05:52:45;;;;;;;3.05;1.45;;;21.90;46.20;;;;;;5113000;27;20047;-40
2023/12/17 05:55:11;;;;;;;2.45;1.60;;;22.00;46.10;;;;;;5111582;27;20095;-36
2023/12/17 05:57:37;;;;;;;3.55;2.28;;;22.10;46.10;;;;;;5112973;27;20077;-36
2023/12/17 06:00:03;;;;;;;3.78;2.00;;;22.00;45.90;;;;;;5114839;27;20030;-37
2023/12/17 06:02:29;;;;;;;2.50;2.10;;;22.00;46.00;;;;;;5108167;28;20023;-36
2023/12/17 06:04:56;;;;;;;5.35;2.42;;;22.00;46.00;;;;;;5113987;27;20028;-36
2023/12/17 06:07:22;;;;;;;5.75;2.40;;;22.00;46.10;;;;;;5112098;28;20016;-37
2023/12/17 06:09:48;;;;;;;37.25;3.80;;;22.00;46.20;;;;;;5114195;28;20094;-39
2023/12/17 06:12:14;;;;;;;30.77;3.28;;;21.90;46.30;;;;;;5108655;27;20089;-38
2023/12/17 06:14:40;;;;;;;14.38;3.10;;;21.90;46.30;;;;;;5114988;27;20031;-39
2023/12/17 06:17:07;;;;;;;12.98;2.97;;;21.80;46.30;;;;;;5111521;28;20058;-39
2023/12/17 06:19:33;;;;;;;14.48;2.70;;;21.80;46.30;;;;;;5113367;28;20035;-39
2023/12/17 06:22:01;;;;;;;16.23;2.60;;;21.80;46.40;;;;;;5109681;28;20053;-39
2023/12/17 06:24:27;;;;;;;9.88;2.70;;;21.70;46.40;;;;;;5114484;28;20043;-43
2023/12/17 06:26:53;;;;;;;9.70;2.63;;;21.70;46.50;;;;;;5110320;28;20043;-40
2023/12/17 06:29:20;;;;;;;8.60;2.50;;;21.60;46.50;;;;;;5115514;28;20028;-39
2023/12/17 06:31:46;;;;;;;11.20;2.70;;;21.60;46.50;;;;;;5089683;28;20036;-39
2023/12/17 06:34:13;;;;;;;5.97;2.22;;;21.60;46.60;;;;;;5110487;28;20027;-39
2023/12/17 06:36:39;;;;;;;4.85;2.42;;;21.50;46.70;;;;;;5115398;28;20027;-39
2023/12/17 06:39:09;;;;;;;7.20;2.33;;;21.60;46.70;;;;;;5091509;28;20039;-39
2023/12/17 06:41:44;;;;;;;6.57;2.40;;;21.70;46.60;;;;;;5111085;28;20896;-39
2023/12/17 06:44:11;;;;;;;4.57;2.20;;;21.80;46.50;;;;;;5107796;28;20039;-39
2023/12/17 06:46:37;;;;;;;4.15;1.95;;;21.90;46.70;;;;;;5117110;28;20069;-39
2023/12/17 06:49:03;;;;;;;5.88;1.92;;;22.00;46.80;;;;;;5108660;28;20074;-39
2023/12/17 06:51:29;;;;;;;3.83;1.73;;;22.10;46.80;;;;;;5118413;28;20057;-39
2023/12/17 06:53:55;;;;;;;4.88;1.80;;;22.10;46.70;;;;;;5107519;28;20032;-39
2023/12/17 06:56:21;;;;;;;2.90;1.50;;;22.20;46.80;;;;;;5107415;28;20040;-39
2023/12/17 06:58:47;;;;;;;3.63;1.63;;;22.30;46.60;;;;;;5111401;28;20598;-39
2023/12/17 07:01:13;;;;;;;2.20;1.50;;;22.30;46.60;;;;;;5088520;28;20119;-39
2023/12/17 07:03:40;;;;;;;1.95;1.40;;;22.20;46.60;;;;;;5106791;28;20024;-39
2023/12/17 07:06:10;;;;;;;4.60;1.60;;;22.20;46.60;;;;;;5107795;28;20034;-39
2023/12/17 07:08:37;;;;;;;3.13;1.60;;;22.20;46.70;;;;;;5116155;28;20035;-40
2023/12/17 07:11:03;;;;;;;4.25;1.75;;;22.10;46.60;;;;;;5113137;28;20038;-39
2023/12/17 07:13:29;;;;;;;2.20;1.55;;;22.10;46.60;;;;;;5107177;28;20031;-39
2023/12/17 07:15:55;;;;;;;4.47;1.90;;;22.10;46.70;;;;;;5107450;28;20629;-39
2023/12/17 07:18:22;;;;;;;2.30;1.67;;;22.00;46.70;;;;;;5111702;28;20041;-39
2023/12/17 07:20:49;;;;;;;2.85;1.73;;;22.00;46.70;;;;;;5114559;28;20426;-40
2023/12/17 07:23:15;;;;;;;3.20;1.60;;;22.00;46.80;;;;;;5114324;28;20114;-44
2023/12/17 07:25:41;;;;;;;4.60;1.85;;;21.90;46.90;;;;;;5109377;28;20047;-39
2023/12/17 07:28:07;;;;;;;2.75;1.77;;;21.90;46.80;;;;;;5113788;28;20057;-39
2023/12/17 07:30:35;;;;;;;1.75;1.50;;;21.80;46.90;;;;;;5111917;28;20091;-40
2023/12/17 07:33:00;;;;;;;;;;;21.80;47.00;;;;;;5112010;28;20092;-40
2023/12/17 07:35:27;;;;;;;2.20;1.58;;;21.70;47.00;;;;;;5115811;28;19968;-39
2023/12/17 07:37:53;;;;;;;2.65;1.85;;;21.70;47.00;;;;;;5107836;28;20447;-39
2023/12/17 07:40:19;;;;;;;2.22;1.42;;;21.70;47.10;;;;;;5106627;28;20028;-39
2023/12/17 07:42:45;;;;;;;2.60;1.73;;;21.60;47.10;;;;;;5103170;28;20036;-39
2023/12/17 07:45:11;;;;;;;2.58;1.60;;;21.80;47.00;;;;;;5110966;28;20421;-39
2023/12/17 07:47:37;;;;;;;2.47;1.50;;;21.90;47.00;;;;;;5111133;28;20050;-39
2023/12/17 07:50:04;;;;;;;1.88;1.30;;;22.00;47.00;;;;;;5112719;28;20028;-39
2023/12/17 07:52:30;;;;;;;1.65;1.35;;;22.10;47.00;;;;;;5109591;28;20036;-38
2023/12/17 07:54:56;;;;;;;1.92;1.40;;;22.10;46.90;;;;;;5114190;28;20036;-39
2023/12/17 07:57:22;;;;;;;1.70;1.20;;;22.20;46.90;;;;;;5110791;28;20577;-39
2023/12/17 07:59:50;;;;;;;1.50;1.10;;;22.30;46.80;;;;;;5113305;28;20040;-39
2023/12/17 08:02:16;;;;;;;1.73;1.13;;;22.30;46.70;;;;;;5114941;28;20031;-39
2023/12/17 08:04:42;;;;;;;1.60;1.30;;;22.30;46.70;;;;;;5107793;28;20023;-39
2023/12/17 08:07:10;;;;;;;1.95;1.30;;;22.30;46.70;;;;;;5114713;27;20043;-39
2023/12/17 08:09:36;;;;;;;;;;;22.20;46.70;;;;;;5116403;28;20535;-39
2023/12/17 08:12:02;;;;;;;2.08;1.67;;;22.20;46.70;;;;;;5114931;27;19955;-39
2023/12/17 08:14:29;;;;;;;2.20;1.48;;;22.10;46.70;;;;;;5115331;27;20031;-38
2023/12/17 08:16:55;;;;;;;2.30;1.60;;;22.10;46.70;;;;;;5117569;28;20036;-39
2023/12/17 08:19:21;;;;;;;1.88;1.50;;;22.10;46.80;;;;;;5117954;28;20020;-42
2023/12/17 08:21:48;;;;;;;2.67;1.85;;;22.00;46.70;;;;;;5109897;28;20027;-39
2023/12/17 08:24:14;;;;;;;2.03;1.50;;;22.00;46.80;;;;;;5108617;28;20024;-39
2023/12/17 08:26:40;;;;;;;1.52;1.40;;;21.90;46.90;;;;;;5117549;28;20027;-39
2023/12/17 08:29:06;;;;;;;1.50;1.40;;;21.90;47.00;;;;;;5112055;28;20031;-39
2023/12/17 08:31:33;;;;;;;1.98;1.40;;;21.80;47.00;;;;;;5115452;27;20023;-39
2023/12/17 08:33:59;;;;;;;1.48;1.35;;;21.80;47.10;;;;;;5121333;28;20035;-39
2023/12/17 08:36:27;;;;;;;1.48;1.30;;;21.80;47.10;;;;;;5114451;28;20031;-39
2023/12/17 08:38:57;;;;;;;4.22;1.70;;;21.70;47.10;;;;;;5111448;27;20131;-37
2023/12/17 08:41:23;;;;;;;1.70;1.48;;;21.70;47.10;;;;;;5116023;27;20298;-37
2023/12/17 08:43:49;;;;;;;2.17;1.98;;;21.70;47.10;;;;;;5111298;28;20034;-39
2023/12/17 08:46:16;;;;;;;2.40;2.20;;;21.70;47.10;;;;;;5120752;27;20027;-39
2023/12/17 08:48:42;;;;;;;2.55;1.90;;;21.60;46.80;;;;;;5107556;28;20051;-39
2023/12/17 08:51:08;;;;;;;2.78;1.95;;;21.80;46.90;;;;;;5111024;28;20032;-39
2023/12/17 08:53:34;;;;;;;2.53;1.88;;;21.90;46.70;;;;;;5109282;28;20036;-39
2023/12/17 08:56:02;;;;;;;1.85;1.67;;;22.00;46.60;;;;;;5125353;27;20024;-39
2023/12/17 08:58:29;;;;;;;3.03;1.80;;;22.00;46.60;;;;;;5114008;28;20028;-39
2023/12/17 09:00:55;;;;;;;;;;;22.10;46.50;;;;;;5112180;28;20028;-38
2023/12/17 09:03:21;;;;;;;1.98;1.67;;;22.20;46.50;;;;;;5111410;28;20389;-39
2023/12/17 09:05:47;;;;;;;1.90;1.55;;;22.30;46.50;;;;;;5107364;28;20028;-39
2023/12/17 09:08:13;;;;;;;4.10;1.55;;;22.30;46.50;;;;;;5116122;28;20034;-38
2023/12/17 09:10:39;;;;;;;1.75;1.33;;;22.30;46.50;;;;;;5112077;28;21616;-39
2023/12/17 09:13:05;;;;;;;1.60;1.50;;;22.20;46.50;;;;;;5113820;28;20048;-39
2023/12/17 09:15:32;;;;;;;2.25;1.55;;;22.20;46.70;;;;;;5115205;28;20027;-39
2023/12/17 09:17:58;;;;;;;2.22;1.50;;;22.10;46.80;;;;;;5110745;28;20424;-38
2023/12/17 09:20:24;;;;;;;1.75;1.58;;;22.10;46.80;;;;;;5113094;28;20027;-39
2023/12/17 09:22:51;;;;;;;1.77;1.42;;;22.10;46.90;;;;;;5108682;27;20034;-38
2023/12/17 09:25:18;;;;;;;2.75;2.03;;;22.10;46.90;;;;;;5108808;28;20036;-38
2023/12/17 09:27:44;;;;;;;1.88;1.60;;;22.00;46.90;;;;;;5120594;27;20039;-38
2023/12/17 09:30:10;;;;;;;2.30;1.90;;;21.90;46.90;;;;;;5114354;28;20468;-38
2023/12/17 09:32:37;;;;;;;2.65;1.73;;;21.90;47.00;;;;;;5115247;28;20064;-38
2023/12/17 09:35:04;;;;;;;3.88;1.85;;;21.80;47.00;;;;;;5114047;27;20048;-38
2023/12/17 09:37:30;;;;;;;2.03;1.52;;;21.80;47.10;;;;;;5109713;28;20031;-38
2023/12/17 09:39:57;;;;;;;2.67;1.90;;;21.80;47.20;;;;;;5109544;28;20049;-39
2023/12/17 09:42:23;;;;;;;2.55;2.15;;;21.80;47.30;;;;;;5110593;28;20032;-39
2023/12/17 09:44:49;;;;;;;3.22;1.83;;;21.70;47.30;;;;;;5111463;28;20028;-39
2023/12/17 09:47:15;;;;;;;2.42;1.60;;;21.70;47.30;;;;;;5091599;28;20056;-39
2023/12/17 09:49:41;;;;;;;2.67;1.58;;;21.60;47.30;;;;;;5091471;28;20056;-39
2023/12/17 09:52:08;;;;;;;2.28;1.60;;;21.60;47.20;;;;;;5092807;28;20044;-38
2023/12/17 09:54:35;;;;;;;1.75;1.50;;;21.80;47.20;;;;;;5093886;28;20058;-38
2023/12/17 09:57:01;;;;;;;2.17;1.50;;;21.80;47.10;;;;;;5091600;28;20062;-38
2023/12/17 09:59:27;;;;;;;1.92;1.48;;;22.00;47.00;;;;;;5090447;28;20118;-38
2023/12/17 10:01:53;;;;;;;1.38;1.23;;;22.00;47.10;;;;;;5088059;28;20036;-39
2023/12/17 10:04:24;;;;;;;1.80;1.40;;;22.10;47.20;;;;;;5091706;28;20039;-38
2023/12/17 10:06:51;;;;;;;1.55;1.30;;;22.20;47.20;;;;;;5088281;28;20040;-38
2023/12/17 10:09:17;;;;;;;1.80;1.30;;;22.20;47.10;;;;;;5074677;28;20026;-38
2023/12/17 10:11:43;;;;;;;1.95;1.40;;;22.30;47.10;;;;;;5089277;28;20040;-39
2023/12/17 10:14:21;;;;;;;2.08;1.30;;;22.40;47.00;;;;;;5087976;28;20027;-39
2023/12/17 10:16:49;;;;;;;1.90;1.30;;;22.40;46.90;;;;;;5089221;28;20028;-39
2023/12/17 10:19:15;;;;;;;2.20;1.25;;;22.40;46.90;;;;;;5092685;28;20020;-39
2023/12/17 10:21:42;;;;;;;1.90;1.40;;;22.30;46.90;;;;;;5088175;28;20024;-38
2023/12/17 10:24:08;;;;;;;2.35;1.55;;;22.30;46.90;;;;;;5088291;28;20024;-38
2023/12/17 10:27:01;;;;;;;1.98;1.40;;;22.30;46.90;;;;;;5092751;28;20101;-38
2023/12/17 10:29:27;;;;;;;2.10;1.40;;;22.20;46.90;;;;;;5072258;28;20089;-38
2023/12/17 10:31:53;;;;;;;2.03;1.47;;;22.20;46.90;;;;;;5061991;28;20036;-38
2023/12/17 10:34:22;;;;;;;1.92;1.30;;;22.10;47.00;;;;;;5092104;28;20044;-38
2023/12/17 10:36:51;;;;;;;1.65;1.35;;;22.10;47.00;;;;;;5092285;28;20088;-39
2023/12/17 10:39:19;;;;;;;3.40;1.45;;;22.00;47.00;;;;;;5095247;28;20024;-38
2023/12/17 10:41:48;;;;;;;1.98;1.38;;;22.00;47.20;;;;;;5089483;28;20043;-38
2023/12/17 10:44:14;;;;;;;1.65;1.50;;;22.00;47.10;;;;;;5078457;28;20061;-39
2023/12/17 10:46:42;;;;;;;1.80;1.38;;;21.90;47.20;;;;;;5091545;28;20047;-41
2023/12/17 10:49:08;;;;;;;;;;;21.90;47.30;;;;;;5090262;28;20058;-38
2023/12/17 10:51:38;;;;;;;2.13;1.55;;;21.80;47.30;;;;;;5091712;28;19987;-38
2023/12/17 10:54:05;;;;;;;1.90;1.30;;;21.80;47.30;;;;;;5088337;28;20043;-38
2023/12/17 10:56:34;;;;;;;2.17;1.30;;;21.70;47.30;;;;;;5076231;28;20062;-39
2023/12/17 10:59:02;;;;;;;2.03;1.20;;;21.60;47.40;;;;;;5079258;28;20031;-39
2023/12/17 11:01:28;;;;;;;1.20;1.10;;;21.80;47.30;;;;;;5078908;28;20039;-39
2023/12/17 11:03:55;;;;;;;2.00;1.38;;;21.80;47.10;;;;;;5087085;28;20028;-38
2023/12/17 11:06:21;;;;;;;1.92;1.35;;;21.90;47.00;;;;;;5095301;28;20036;-38
2023/12/17 11:08:47;;;;;;;1.30;1.20;;;22.00;47.00;;;;;;5086410;28;20028;-38
2023/12/17 11:11:13;;;;;;;1.60;1.20;;;22.10;46.90;;;;;;5088337;28;20023;-38
2023/12/17 11:13:39;;;;;;;2.25;1.33;;;22.20;46.90;;;;;;5087948;28;20028;-39
2023/12/17 11:16:26;;;;;;;2.53;1.45;;;22.30;46.90;;;;;;5091012;28;20076;-39
2023/12/17 11:18:52;;;;;;;1.52;1.10;;;22.30;46.80;;;;;;5088788;28;20028;-39
2023/12/17 11:21:19;;;;;;;1.55;1.33;;;22.40;46.70;;;;;;5091292;28;20032;-39
2023/12/17 11:23:54;;;;;;;2.00;1.30;;;22.30;46.70;;;;;;5085626;28;20049;-39
2023/12/17 11:26:20;;;;;;;1.52;1.23;;;22.30;46.70;;;;;;5088637;28;20051;-39
2023/12/17 11:28:46;;;;;;;1.55;1.20;;;22.20;46.70;;;;;;5093130;28;20118;-38
2023/12/17 11:31:12;;;;;;;1.70;1.13;;;22.20;46.80;;;;;;5085808;28;20032;-39
2023/12/17 11:33:42;;;;;;;1.98;1.23;;;22.20;46.90;;;;;;5093295;28;20091;-38
2023/12/17 11:36:09;;;;;;;1.75;1.15;;;22.10;46.90;;;;;;5091414;28;20036;-39
2023/12/17 11:38:35;;;;;;;1.73;1.23;;;22.10;47.00;;;;;;5087950;28;20024;-38
2023/12/17 11:41:03;;;;;;;1.03;0.93;;;22.00;47.10;;;;;;5088964;28;20057;-39
2023/12/17 11:43:30;;;;;;;2.33;1.30;;;22.00;47.10;;;;;;5093866;28;20056;-38
2023/12/17 11:45:56;;;;;;;1.40;1.25;;;21.90;47.30;;;;;;5089678;28;20782;-39
2023/12/17 11:48:22;;;;;;;1.65;1.40;;;21.90;47.30;;;;;;5101226;28;20044;-38
2023/12/17 11:50:59;;;;;;;2.17;1.25;;;21.90;47.30;;;;;;5111700;28;20036;-38
2023/12/17 11:53:26;;;;;;;1.70;1.30;;;21.80;47.50;;;;;;5111829;28;20039;-39
2023/12/17 11:55:52;;;;;;;2.08;1.25;;;21.80;47.50;;;;;;5097142;28;20020;-39
2023/12/17 11:58:20;;;;;;;1.80;1.35;;;21.70;47.50;;;;;;5111389;28;20027;-38
2023/12/17 12:01:09;;;;;;;2.03;1.30;;;21.60;47.50;;;;;;5108109;28;20028;-39
2023/12/17 12:03:36;;;;;;;2.25;1.50;;;21.60;47.60;;;;;;5088987;28;20028;-38
2023/12/17 12:06:10;;;;;;;1.40;1.30;;;21.70;47.40;;;;;;5108129;28;20038;-38
2023/12/17 12:08:37;;;;;;;1.98;1.10;;;21.80;47.30;;;;;;5112575;28;20083;-38
2023/12/17 12:11:04;;;;;;;1.23;1.08;;;22.00;47.30;;;;;;5106241;28;20383;-39
2023/12/17 12:13:31;;;;;;;1.73;1.23;;;22.00;47.40;;;;;;5106863;28;20078;-39
2023/12/17 12:15:58;;;;;;;1.40;1.13;;;22.10;47.60;;;;;;5111205;28;20091;-39
2023/12/17 12:18:24;;;;;;;1.42;1.20;;;22.10;47.50;;;;;;5109273;28;20089;-38
2023/12/17 12:20:50;;;;;;;1.27;1.10;;;22.20;47.60;;;;;;5106629;28;20047;-38
2023/12/17 12:23:16;;;;;;;2.22;1.27;;;22.30;47.50;;;;;;5108772;28;20468;-38
2023/12/17 12:25:42;;;;;;;1.35;1.15;;;22.40;47.40;;;;;;5090807;28;20069;-38
2023/12/17 12:28:21;;;;;;;1.58;1.23;;;22.30;47.40;;;;;;5106186;28;20028;-39
2023/12/17 12:30:47;;;;;;;1.55;1.05;;;22.30;47.40;;;;;;5107944;28;20048;-39
2023/12/17 12:33:14;;;;;;;1.67;1.25;;;22.30;47.40;;;;;;5114442;28;20040;-40
2023/12/17 12:35:41;;;;;;;1.67;1.20;;;22.20;47.40;;;;;;5110493;28;20031;-39
2023/12/17 12:38:24;;;;;;;1.67;1.20;;;22.20;47.50;;;;;;5113079;28;20035;-39
2023/12/17 12:40:51;;;;;;;1.65;1.30;;;22.10;47.90;;;;;;5107773;28;20062;-39
2023/12/17 12:43:17;;;;;;;1.50;1.40;;;22.10;47.90;;;;;;5120820;28;20087;-39
2023/12/17 12:45:46;;;;;;;1.38;1.27;;;22.10;48.10;;;;;;5122150;28;20034;-39